sensor_id;sensor_type;location;lat;lon;timestamp;P1;durP1;ratioP1;P2;durP2;ratioP2
2944;SDS011;1482;51.398;7.128;2023-12-04T00:00:00;18.00;;;10.80;;
2944;SDS011;1482;51.398;7.128;2023-12-04T00:02:27;20.07;;;11.50;;
2944;SDS011;1482;51.398;7.128;2023-12-04T00:04:53;19.50;;;11.50;;
2944;SDS011;1482;51.398;7.128;2023-12-04T00:07:18;16.70;;;10.27;;
2944;SDS011;1482;51.398;7.128;2023-12-04T00:09:44;21.80;;;10.67;;
2944;SDS011;1482;51.398;7.128;2023-12-04T00:12:09;18.63;;;10.10;;
2944;SDS011;1482;51.398;7.128;2023-12-04T00:14:35;18.77;;;11.07;;
2944;SDS011;1482;51.398;7.128;2023-12-04T00:17:00;16.27;;;10.20;;
2944;SDS011;1482;51.398;7.128;2023-12-04T00:19:26;16.77;;;10.50;;
2944;SDS011;1482;51.398;7.128;2023-12-04T00:21:51;16.53;;;10.13;;
2944;SDS011;1482;51.398;7.128;2023-12-04T00:24:17;15.80;;;10.83;;
2944;SDS011;1482;51.398;7.128;2023-12-04T00:26:42;17.17;;;10.70;;
2944;SDS011;1482;51.398;7.128;2023-12-04T00:29:08;16.07;;;10.13;;
2944;SDS011;1482;51.398;7.128;2023-12-04T00:31:33;16.73;;;10.37;;
2944;SDS011;1482;51.398;7.128;2023-12-04T00:33:59;17.80;;;11.73;;
2944;SDS011;1482;51.398;7.128;2023-12-04T00:36:24;19.73;;;10.97;;
2944;SDS011;1482;51.398;7.128;2023-12-04T00:38:50;18.27;;;10.63;;
2944;SDS011;1482;51.398;7.128;2023-12-04T00:41:15;18.60;;;10.20;;
2944;SDS011;1482;51.398;7.128;2023-12-04T00:43:41;14.30;;;9.43;;
2944;SDS011;1482;51.398;7.128;2023-12-04T00:46:07;17.60;;;9.70;;
2944;SDS011;1482;51.398;7.128;2023-12-04T00:48:32;19.30;;;10.23;;
2944;SDS011;1482;51.398;7.128;2023-12-04T00:50:58;12.33;;;8.60;;
2944;SDS011;1482;51.398;7.128;2023-12-04T00:53:23;16.23;;;10.17;;
2944;SDS011;1482;51.398;7.128;2023-12-04T00:55:49;13.50;;;9.20;;
2944;SDS011;1482;51.398;7.128;2023-12-04T00:58:14;16.67;;;10.57;;
2944;SDS011;1482;51.398;7.128;2023-12-04T01:00:40;17.53;;;10.07;;
2944;SDS011;1482;51.398;7.128;2023-12-04T01:03:05;15.60;;;9.73;;
2944;SDS011;1482;51.398;7.128;2023-12-04T01:05:31;15.10;;;9.63;;
2944;SDS011;1482;51.398;7.128;2023-12-04T01:07:57;15.23;;;9.30;;
2944;SDS011;1482;51.398;7.128;2023-12-04T01:10:22;13.90;;;9.30;;
2944;SDS011;1482;51.398;7.128;2023-12-04T01:12:48;11.77;;;9.57;;
2944;SDS011;1482;51.398;7.128;2023-12-04T01:15:13;14.73;;;9.40;;
2944;SDS011;1482;51.398;7.128;2023-12-04T01:17:39;13.50;;;8.83;;
2944;SDS011;1482;51.398;7.128;2023-12-04T01:20:05;16.30;;;9.20;;
2944;SDS011;1482;51.398;7.128;2023-12-04T01:22:31;13.90;;;8.60;;
2944;SDS011;1482;51.398;7.128;2023-12-04T01:24:56;14.07;;;8.70;;
2944;SDS011;1482;51.398;7.128;2023-12-04T01:27:22;15.30;;;10.20;;
2944;SDS011;1482;51.398;7.128;2023-12-04T01:29:47;9.90;;;8.30;;
2944;SDS011;1482;51.398;7.128;2023-12-04T01:32:13;13.20;;;8.17;;
2944;SDS011;1482;51.398;7.128;2023-12-04T01:34:39;13.40;;;7.80;;
2944;SDS011;1482;51.398;7.128;2023-12-04T01:37:04;13.23;;;7.87;;
2944;SDS011;1482;51.398;7.128;2023-12-04T01:39:30;13.70;;;8.67;;
2944;SDS011;1482;51.398;7.128;2023-12-04T01:41:55;12.20;;;7.60;;
2944;SDS011;1482;51.398;7.128;2023-12-04T01:44:21;15.67;;;9.07;;
2944;SDS011;1482;51.398;7.128;2023-12-04T01:46:47;12.80;;;8.13;;
2944;SDS011;1482;51.398;7.128;2023-12-04T01:49:13;14.00;;;8.20;;
2944;SDS011;1482;51.398;7.128;2023-12-04T01:51:39;15.57;;;8.23;;
2944;SDS011;1482;51.398;7.128;2023-12-04T01:54:05;12.67;;;7.60;;
2944;SDS011;1482;51.398;7.128;2023-12-04T01:56:32;13.60;;;8.17;;
2944;SDS011;1482;51.398;7.128;2023-12-04T01:58:59;12.80;;;7.13;;
2944;SDS011;1482;51.398;7.128;2023-12-04T02:01:25;12.03;;;7.60;;
2944;SDS011;1482;51.398;7.128;2023-12-04T02:03:52;12.17;;;8.17;;
2944;SDS011;1482;51.398;7.128;2023-12-04T02:06:18;11.40;;;9.03;;
2944;SDS011;1482;51.398;7.128;2023-12-04T02:08:46;10.17;;;6.33;;
2944;SDS011;1482;51.398;7.128;2023-12-04T02:11:12;11.10;;;7.37;;
2944;SDS011;1482;51.398;7.128;2023-12-04T02:13:37;15.37;;;8.30;;
2944;SDS011;1482;51.398;7.128;2023-12-04T02:16:03;15.43;;;8.50;;
2944;SDS011;1482;51.398;7.128;2023-12-04T02:18:33;15.00;;;8.03;;
2944;SDS011;1482;51.398;7.128;2023-12-04T02:21:02;10.80;;;7.00;;
2944;SDS011;1482;51.398;7.128;2023-12-04T02:23:28;14.37;;;7.30;;
2944;SDS011;1482;51.398;7.128;2023-12-04T02:26:05;14.63;;;8.07;;
2944;SDS011;1482;51.398;7.128;2023-12-04T02:28:35;12.53;;;7.73;;
2944;SDS011;1482;51.398;7.128;2023-12-04T02:31:04;14.93;;;7.80;;
2944;SDS011;1482;51.398;7.128;2023-12-04T02:33:31;13.63;;;8.50;;
2944;SDS011;1482;51.398;7.128;2023-12-04T02:35:58;16.77;;;7.23;;
2944;SDS011;1482;51.398;7.128;2023-12-04T02:38:24;14.30;;;7.80;;
2944;SDS011;1482;51.398;7.128;2023-12-04T02:40:50;12.70;;;8.13;;
2944;SDS011;1482;51.398;7.128;2023-12-04T02:43:16;11.43;;;6.77;;
2944;SDS011;1482;51.398;7.128;2023-12-04T02:45:41;9.47;;;6.30;;
2944;SDS011;1482;51.398;7.128;2023-12-04T02:48:07;8.93;;;5.43;;
2944;SDS011;1482;51.398;7.128;2023-12-04T02:50:33;8.03;;;5.20;;
2944;SDS011;1482;51.398;7.128;2023-12-04T02:52:58;15.47;;;7.20;;
2944;SDS011;1482;51.398;7.128;2023-12-04T02:55:24;10.17;;;7.17;;
2944;SDS011;1482;51.398;7.128;2023-12-04T02:57:49;13.60;;;7.80;;
2944;SDS011;1482;51.398;7.128;2023-12-04T03:00:15;9.60;;;7.40;;
2944;SDS011;1482;51.398;7.128;2023-12-04T03:02:40;12.13;;;7.83;;
2944;SDS011;1482;51.398;7.128;2023-12-04T03:05:06;11.23;;;7.00;;
2944;SDS011;1482;51.398;7.128;2023-12-04T03:07:32;9.47;;;5.47;;
2944;SDS011;1482;51.398;7.128;2023-12-04T03:09:57;9.20;;;6.13;;
2944;SDS011;1482;51.398;7.128;2023-12-04T03:12:23;10.60;;;6.20;;
2944;SDS011;1482;51.398;7.128;2023-12-04T03:14:48;13.00;;;7.40;;
2944;SDS011;1482;51.398;7.128;2023-12-04T03:17:14;12.50;;;7.07;;
2944;SDS011;1482;51.398;7.128;2023-12-04T03:19:39;11.03;;;6.73;;
2944;SDS011;1482;51.398;7.128;2023-12-04T03:22:05;13.20;;;6.00;;
2944;SDS011;1482;51.398;7.128;2023-12-04T03:24:31;8.67;;;5.80;;
2944;SDS011;1482;51.398;7.128;2023-12-04T03:26:56;8.80;;;5.80;;
2944;SDS011;1482;51.398;7.128;2023-12-04T03:29:22;9.53;;;6.10;;
2944;SDS011;1482;51.398;7.128;2023-12-04T03:31:47;9.43;;;6.00;;
2944;SDS011;1482;51.398;7.128;2023-12-04T03:34:13;12.23;;;6.90;;
2944;SDS011;1482;51.398;7.128;2023-12-04T03:36:38;5.70;;;4.10;;
2944;SDS011;1482;51.398;7.128;2023-12-04T03:39:04;6.77;;;5.23;;
2944;SDS011;1482;51.398;7.128;2023-12-04T03:41:29;5.87;;;4.33;;
2944;SDS011;1482;51.398;7.128;2023-12-04T03:43:55;12.13;;;7.07;;
2944;SDS011;1482;51.398;7.128;2023-12-04T03:46:20;10.27;;;5.50;;
2944;SDS011;1482;51.398;7.128;2023-12-04T03:48:46;8.63;;;4.50;;
2944;SDS011;1482;51.398;7.128;2023-12-04T03:51:12;7.00;;;5.90;;
2944;SDS011;1482;51.398;7.128;2023-12-04T03:53:37;7.80;;;5.40;;
2944;SDS011;1482;51.398;7.128;2023-12-04T03:56:03;10.87;;;5.93;;
2944;SDS011;1482;51.398;7.128;2023-12-04T03:58:29;9.00;;;5.20;;
2944;SDS011;1482;51.398;7.128;2023-12-04T04:00:54;12.17;;;6.97;;
2944;SDS011;1482;51.398;7.128;2023-12-04T04:03:20;8.10;;;4.90;;
2944;SDS011;1482;51.398;7.128;2023-12-04T04:05:45;10.60;;;5.70;;
2944;SDS011;1482;51.398;7.128;2023-12-04T04:08:11;10.97;;;6.67;;
2944;SDS011;1482;51.398;7.128;2023-12-04T04:10:36;8.43;;;4.90;;
2944;SDS011;1482;51.398;7.128;2023-12-04T04:13:02;7.93;;;5.07;;
2944;SDS011;1482;51.398;7.128;2023-12-04T04:15:27;8.47;;;5.93;;
2944;SDS011;1482;51.398;7.128;2023-12-04T04:17:53;8.20;;;5.70;;
2944;SDS011;1482;51.398;7.128;2023-12-04T04:20:19;9.37;;;5.20;;
2944;SDS011;1482;51.398;7.128;2023-12-04T04:22:47;7.20;;;5.17;;
2944;SDS011;1482;51.398;7.128;2023-12-04T04:25:13;9.67;;;5.70;;
2944;SDS011;1482;51.398;7.128;2023-12-04T04:27:39;8.97;;;6.23;;
2944;SDS011;1482;51.398;7.128;2023-12-04T04:30:05;5.90;;;4.97;;
2944;SDS011;1482;51.398;7.128;2023-12-04T04:32:30;8.83;;;5.13;;
2944;SDS011;1482;51.398;7.128;2023-12-04T04:34:56;7.00;;;4.43;;
2944;SDS011;1482;51.398;7.128;2023-12-04T04:37:22;5.70;;;4.27;;
2944;SDS011;1482;51.398;7.128;2023-12-04T04:39:47;9.60;;;6.07;;
2944;SDS011;1482;51.398;7.128;2023-12-04T04:42:14;7.90;;;5.90;;
2944;SDS011;1482;51.398;7.128;2023-12-04T04:44:39;6.87;;;4.43;;
2944;SDS011;1482;51.398;7.128;2023-12-04T04:47:05;8.37;;;5.40;;
2944;SDS011;1482;51.398;7.128;2023-12-04T04:49:31;8.33;;;5.50;;
2944;SDS011;1482;51.398;7.128;2023-12-04T04:51:56;7.70;;;5.97;;
2944;SDS011;1482;51.398;7.128;2023-12-04T04:54:22;7.57;;;5.33;;
2944;SDS011;1482;51.398;7.128;2023-12-04T04:56:47;8.03;;;5.33;;
2944;SDS011;1482;51.398;7.128;2023-12-04T04:59:13;8.13;;;5.27;;
2944;SDS011;1482;51.398;7.128;2023-12-04T05:01:38;8.20;;;4.63;;
2944;SDS011;1482;51.398;7.128;2023-12-04T05:04:04;11.80;;;5.70;;
2944;SDS011;1482;51.398;7.128;2023-12-04T05:06:29;8.80;;;5.53;;
2944;SDS011;1482;51.398;7.128;2023-12-04T05:08:55;8.53;;;5.43;;
2944;SDS011;1482;51.398;7.128;2023-12-04T05:11:21;9.13;;;4.90;;
2944;SDS011;1482;51.398;7.128;2023-12-04T05:13:47;7.97;;;5.57;;
2944;SDS011;1482;51.398;7.128;2023-12-04T05:16:13;7.67;;;5.80;;
2944;SDS011;1482;51.398;7.128;2023-12-04T05:18:38;10.50;;;6.00;;
2944;SDS011;1482;51.398;7.128;2023-12-04T05:21:13;10.70;;;5.90;;
2944;SDS011;1482;51.398;7.128;2023-12-04T05:23:38;6.97;;;4.87;;
2944;SDS011;1482;51.398;7.128;2023-12-04T05:26:05;8.17;;;4.80;;
2944;SDS011;1482;51.398;7.128;2023-12-04T05:28:31;9.90;;;5.80;;
2944;SDS011;1482;51.398;7.128;2023-12-04T05:30:57;9.67;;;5.90;;
2944;SDS011;1482;51.398;7.128;2023-12-04T05:33:22;7.87;;;5.70;;
2944;SDS011;1482;51.398;7.128;2023-12-04T05:35:48;6.53;;;4.97;;
2944;SDS011;1482;51.398;7.128;2023-12-04T05:38:16;7.03;;;5.03;;
2944;SDS011;1482;51.398;7.128;2023-12-04T05:40:41;9.83;;;6.20;;
2944;SDS011;1482;51.398;7.128;2023-12-04T05:43:07;5.50;;;4.93;;
2944;SDS011;1482;51.398;7.128;2023-12-04T05:45:32;6.63;;;4.43;;
2944;SDS011;1482;51.398;7.128;2023-12-04T05:47:58;7.60;;;5.60;;
2944;SDS011;1482;51.398;7.128;2023-12-04T05:50:23;8.20;;;4.77;;
2944;SDS011;1482;51.398;7.128;2023-12-04T05:52:50;6.23;;;4.53;;
2944;SDS011;1482;51.398;7.128;2023-12-04T05:55:16;9.10;;;5.53;;
2944;SDS011;1482;51.398;7.128;2023-12-04T05:57:41;6.60;;;5.40;;
2944;SDS011;1482;51.398;7.128;2023-12-04T06:00:07;14.57;;;6.40;;
2944;SDS011;1482;51.398;7.128;2023-12-04T06:02:43;7.43;;;5.93;;
2944;SDS011;1482;51.398;7.128;2023-12-04T06:05:10;12.53;;;6.30;;
2944;SDS011;1482;51.398;7.128;2023-12-04T06:07:36;8.67;;;5.77;;
2944;SDS011;1482;51.398;7.128;2023-12-04T06:10:02;6.00;;;4.77;;
2944;SDS011;1482;51.398;7.128;2023-12-04T06:12:31;6.20;;;5.23;;
2944;SDS011;1482;51.398;7.128;2023-12-04T06:14:57;8.00;;;4.70;;
2944;SDS011;1482;51.398;7.128;2023-12-04T06:17:25;8.57;;;6.20;;
2944;SDS011;1482;51.398;7.128;2023-12-04T06:19:52;9.93;;;5.97;;
2944;SDS011;1482;51.398;7.128;2023-12-04T06:22:18;7.80;;;5.90;;
2944;SDS011;1482;51.398;7.128;2023-12-04T06:24:46;9.30;;;5.10;;
2944;SDS011;1482;51.398;7.128;2023-12-04T06:27:13;10.23;;;6.50;;
2944;SDS011;1482;51.398;7.128;2023-12-04T06:29:41;7.30;;;5.53;;
2944;SDS011;1482;51.398;7.128;2023-12-04T06:32:07;9.23;;;6.20;;
2944;SDS011;1482;51.398;7.128;2023-12-04T06:34:33;9.00;;;5.53;;
2944;SDS011;1482;51.398;7.128;2023-12-04T06:36:59;7.27;;;5.23;;
2944;SDS011;1482;51.398;7.128;2023-12-04T06:39:27;8.33;;;5.90;;
2944;SDS011;1482;51.398;7.128;2023-12-04T06:41:58;7.80;;;5.47;;
2944;SDS011;1482;51.398;7.128;2023-12-04T06:44:24;8.77;;;5.53;;
2944;SDS011;1482;51.398;7.128;2023-12-04T06:46:50;8.40;;;5.57;;
2944;SDS011;1482;51.398;7.128;2023-12-04T06:49:17;13.83;;;5.63;;
2944;SDS011;1482;51.398;7.128;2023-12-04T06:51:43;7.83;;;4.63;;
2944;SDS011;1482;51.398;7.128;2023-12-04T06:54:09;7.40;;;5.83;;
2944;SDS011;1482;51.398;7.128;2023-12-04T06:56:36;9.10;;;6.10;;
2944;SDS011;1482;51.398;7.128;2023-12-04T06:59:02;7.80;;;4.67;;
2944;SDS011;1482;51.398;7.128;2023-12-04T07:01:29;8.50;;;6.00;;
2944;SDS011;1482;51.398;7.128;2023-12-04T07:03:54;8.73;;;5.83;;
2944;SDS011;1482;51.398;7.128;2023-12-04T07:06:20;9.07;;;5.70;;
2944;SDS011;1482;51.398;7.128;2023-12-04T07:08:45;5.90;;;4.20;;
2944;SDS011;1482;51.398;7.128;2023-12-04T07:11:11;10.43;;;5.27;;
2944;SDS011;1482;51.398;7.128;2023-12-04T07:13:40;8.07;;;5.77;;
2944;SDS011;1482;51.398;7.128;2023-12-04T07:16:07;7.47;;;5.67;;
2944;SDS011;1482;51.398;7.128;2023-12-04T07:18:33;7.03;;;5.70;;
2944;SDS011;1482;51.398;7.128;2023-12-04T07:20:58;8.60;;;6.33;;
2944;SDS011;1482;51.398;7.128;2023-12-04T07:23:24;9.70;;;5.10;;
2944;SDS011;1482;51.398;7.128;2023-12-04T07:25:49;8.90;;;5.43;;
2944;SDS011;1482;51.398;7.128;2023-12-04T07:28:16;6.20;;;3.73;;
2944;SDS011;1482;51.398;7.128;2023-12-04T07:30:42;8.47;;;6.17;;
2944;SDS011;1482;51.398;7.128;2023-12-04T07:33:07;8.20;;;5.70;;
2944;SDS011;1482;51.398;7.128;2023-12-04T07:35:33;8.37;;;5.17;;
2944;SDS011;1482;51.398;7.128;2023-12-04T07:37:59;4.70;;;4.17;;
2944;SDS011;1482;51.398;7.128;2023-12-04T07:40:24;8.50;;;5.20;;
2944;SDS011;1482;51.398;7.128;2023-12-04T07:42:50;7.13;;;5.27;;
2944;SDS011;1482;51.398;7.128;2023-12-04T07:45:18;7.80;;;4.70;;
2944;SDS011;1482;51.398;7.128;2023-12-04T07:47:45;6.73;;;4.83;;
2944;SDS011;1482;51.398;7.128;2023-12-04T07:50:10;9.30;;;5.90;;
2944;SDS011;1482;51.398;7.128;2023-12-04T07:52:36;7.80;;;4.70;;
2944;SDS011;1482;51.398;7.128;2023-12-04T07:55:01;6.20;;;3.80;;
2944;SDS011;1482;51.398;7.128;2023-12-04T07:57:27;8.90;;;4.40;;
2944;SDS011;1482;51.398;7.128;2023-12-04T07:59:53;5.30;;;3.97;;
2944;SDS011;1482;51.398;7.128;2023-12-04T08:02:18;4.20;;;3.47;;
2944;SDS011;1482;51.398;7.128;2023-12-04T08:04:44;11.30;;;4.53;;
2944;SDS011;1482;51.398;7.128;2023-12-04T08:07:09;7.27;;;4.73;;
2944;SDS011;1482;51.398;7.128;2023-12-04T08:09:35;6.60;;;5.17;;
2944;SDS011;1482;51.398;7.128;2023-12-04T08:12:01;8.43;;;5.00;;
2944;SDS011;1482;51.398;7.128;2023-12-04T08:14:27;6.63;;;5.10;;
2944;SDS011;1482;51.398;7.128;2023-12-04T08:16:53;6.43;;;5.40;;
2944;SDS011;1482;51.398;7.128;2023-12-04T08:19:18;6.80;;;4.80;;
2944;SDS011;1482;51.398;7.128;2023-12-04T08:21:44;5.70;;;4.10;;
2944;SDS011;1482;51.398;7.128;2023-12-04T08:24:09;6.33;;;4.33;;
2944;SDS011;1482;51.398;7.128;2023-12-04T08:26:35;5.13;;;4.03;;
2944;SDS011;1482;51.398;7.128;2023-12-04T08:29:01;5.53;;;3.60;;
2944;SDS011;1482;51.398;7.128;2023-12-04T08:31:27;5.50;;;4.47;;
2944;SDS011;1482;51.398;7.128;2023-12-04T08:33:53;8.00;;;5.40;;
2944;SDS011;1482;51.398;7.128;2023-12-04T08:36:18;6.53;;;4.40;;
2944;SDS011;1482;51.398;7.128;2023-12-04T08:38:45;5.03;;;3.73;;
2944;SDS011;1482;51.398;7.128;2023-12-04T08:41:10;6.00;;;4.30;;
2944;SDS011;1482;51.398;7.128;2023-12-04T08:43:36;6.97;;;4.50;;
2944;SDS011;1482;51.398;7.128;2023-12-04T08:46:02;5.40;;;3.90;;
2944;SDS011;1482;51.398;7.128;2023-12-04T08:48:27;5.30;;;4.10;;
2944;SDS011;1482;51.398;7.128;2023-12-04T08:50:53;5.93;;;4.37;;
2944;SDS011;1482;51.398;7.128;2023-12-04T08:53:19;6.73;;;4.80;;
2944;SDS011;1482;51.398;7.128;2023-12-04T08:55:44;9.57;;;4.73;;
2944;SDS011;1482;51.398;7.128;2023-12-04T08:58:10;7.10;;;4.10;;
2944;SDS011;1482;51.398;7.128;2023-12-04T09:00:36;7.30;;;4.30;;
2944;SDS011;1482;51.398;7.128;2023-12-04T09:03:02;5.33;;;4.33;;
2944;SDS011;1482;51.398;7.128;2023-12-04T09:05:28;5.73;;;4.90;;
2944;SDS011;1482;51.398;7.128;2023-12-04T09:07:53;5.03;;;4.17;;
2944;SDS011;1482;51.398;7.128;2023-12-04T09:10:19;5.07;;;3.60;;
2944;SDS011;1482;51.398;7.128;2023-12-04T09:12:45;4.90;;;3.70;;
2944;SDS011;1482;51.398;7.128;2023-12-04T09:15:10;4.97;;;3.53;;
2944;SDS011;1482;51.398;7.128;2023-12-04T09:17:36;13.57;;;4.90;;
2944;SDS011;1482;51.398;7.128;2023-12-04T09:20:02;13.90;;;4.67;;
2944;SDS011;1482;51.398;7.128;2023-12-04T09:22:30;5.20;;;3.53;;
2944;SDS011;1482;51.398;7.128;2023-12-04T09:24:56;5.50;;;3.60;;
2944;SDS011;1482;51.398;7.128;2023-12-04T09:27:22;5.10;;;4.50;;
2944;SDS011;1482;51.398;7.128;2023-12-04T09:29:48;4.73;;;3.90;;
2944;SDS011;1482;51.398;7.128;2023-12-04T09:32:13;5.67;;;4.00;;
2944;SDS011;1482;51.398;7.128;2023-12-04T09:34:39;5.13;;;4.20;;
2944;SDS011;1482;51.398;7.128;2023-12-04T09:37:04;5.40;;;4.10;;
2944;SDS011;1482;51.398;7.128;2023-12-04T09:39:30;5.33;;;4.03;;
2944;SDS011;1482;51.398;7.128;2023-12-04T09:41:55;5.50;;;3.33;;
2944;SDS011;1482;51.398;7.128;2023-12-04T09:44:22;6.47;;;4.80;;
2944;SDS011;1482;51.398;7.128;2023-12-04T09:46:49;7.53;;;5.00;;
2944;SDS011;1482;51.398;7.128;2023-12-04T09:49:16;5.70;;;4.53;;
2944;SDS011;1482;51.398;7.128;2023-12-04T09:51:43;5.57;;;3.83;;
2944;SDS011;1482;51.398;7.128;2023-12-04T09:54:09;5.43;;;4.23;;
2944;SDS011;1482;51.398;7.128;2023-12-04T09:56:35;4.07;;;3.10;;
2944;SDS011;1482;51.398;7.128;2023-12-04T09:59:02;4.73;;;4.10;;
2944;SDS011;1482;51.398;7.128;2023-12-04T10:01:31;6.17;;;4.37;;
2944;SDS011;1482;51.398;7.128;2023-12-04T10:03:58;5.47;;;4.13;;
2944;SDS011;1482;51.398;7.128;2023-12-04T10:06:27;9.13;;;4.30;;
2944;SDS011;1482;51.398;7.128;2023-12-04T10:08:56;7.77;;;4.60;;
2944;SDS011;1482;51.398;7.128;2023-12-04T10:11:23;8.23;;;4.67;;
2944;SDS011;1482;51.398;7.128;2023-12-04T10:13:52;7.50;;;4.97;;
2944;SDS011;1482;51.398;7.128;2023-12-04T10:16:34;4.53;;;3.77;;
2944;SDS011;1482;51.398;7.128;2023-12-04T10:19:19;7.60;;;5.40;;
2944;SDS011;1482;51.398;7.128;2023-12-04T10:21:52;8.80;;;5.30;;
2944;SDS011;1482;51.398;7.128;2023-12-04T10:24:29;5.43;;;4.00;;
2944;SDS011;1482;51.398;7.128;2023-12-04T10:26:55;9.97;;;5.43;;
2944;SDS011;1482;51.398;7.128;2023-12-04T10:29:21;7.60;;;4.93;;
2944;SDS011;1482;51.398;7.128;2023-12-04T10:31:48;9.13;;;4.83;;
2944;SDS011;1482;51.398;7.128;2023-12-04T10:34:16;6.27;;;4.77;;
2944;SDS011;1482;51.398;7.128;2023-12-04T10:36:41;9.33;;;5.37;;
2944;SDS011;1482;51.398;7.128;2023-12-04T10:39:07;5.67;;;4.10;;
2944;SDS011;1482;51.398;7.128;2023-12-04T10:41:33;6.93;;;6.00;;
2944;SDS011;1482;51.398;7.128;2023-12-04T10:43:59;5.00;;;4.00;;
2944;SDS011;1482;51.398;7.128;2023-12-04T10:46:26;6.40;;;5.00;;
2944;SDS011;1482;51.398;7.128;2023-12-04T10:48:52;10.00;;;5.30;;
2944;SDS011;1482;51.398;7.128;2023-12-04T10:51:19;9.23;;;6.17;;
2944;SDS011;1482;51.398;7.128;2023-12-04T10:53:46;7.93;;;5.23;;
2944;SDS011;1482;51.398;7.128;2023-12-04T10:56:31;11.07;;;5.47;;
2944;SDS011;1482;51.398;7.128;2023-12-04T10:59:03;5.30;;;4.37;;
2944;SDS011;1482;51.398;7.128;2023-12-04T11:01:30;9.30;;;6.27;;
2944;SDS011;1482;51.398;7.128;2023-12-04T11:03:58;9.70;;;5.70;;
2944;SDS011;1482;51.398;7.128;2023-12-04T11:06:27;5.87;;;4.60;;
2944;SDS011;1482;51.398;7.128;2023-12-04T11:08:56;9.37;;;6.20;;
2944;SDS011;1482;51.398;7.128;2023-12-04T11:11:34;9.00;;;5.47;;
2944;SDS011;1482;51.398;7.128;2023-12-04T11:14:01;12.60;;;7.40;;
2944;SDS011;1482;51.398;7.128;2023-12-04T11:19:29;10.70;;;6.50;;
2944;SDS011;1482;51.398;7.128;2023-12-04T11:22:15;8.97;;;6.17;;
2944;SDS011;1482;51.398;7.128;2023-12-04T11:24:45;10.07;;;5.33;;
2944;SDS011;1482;51.398;7.128;2023-12-04T11:27:12;8.50;;;4.83;;
2944;SDS011;1482;51.398;7.128;2023-12-04T11:29:39;8.10;;;5.10;;
2944;SDS011;1482;51.398;7.128;2023-12-04T11:32:05;7.53;;;6.10;;
2944;SDS011;1482;51.398;7.128;2023-12-04T11:34:32;10.27;;;6.80;;
2944;SDS011;1482;51.398;7.128;2023-12-04T11:36:57;8.23;;;5.07;;
2944;SDS011;1482;51.398;7.128;2023-12-04T11:39:25;9.60;;;6.37;;
2944;SDS011;1482;51.398;7.128;2023-12-04T11:41:50;8.57;;;6.53;;
2944;SDS011;1482;51.398;7.128;2023-12-04T11:44:16;7.87;;;6.60;;
2944;SDS011;1482;51.398;7.128;2023-12-04T11:49:31;8.80;;;6.53;;
2944;SDS011;1482;51.398;7.128;2023-12-04T11:52:00;7.53;;;5.63;;
2944;SDS011;1482;51.398;7.128;2023-12-04T11:54:29;8.50;;;5.83;;
2944;SDS011;1482;51.398;7.128;2023-12-04T11:57:33;6.63;;;5.00;;
2944;SDS011;1482;51.398;7.128;2023-12-04T12:05:13;9.87;;;6.03;;
2944;SDS011;1482;51.398;7.128;2023-12-04T12:07:39;10.10;;;6.57;;
2944;SDS011;1482;51.398;7.128;2023-12-04T12:10:05;6.83;;;5.80;;
2944;SDS011;1482;51.398;7.128;2023-12-04T12:12:31;11.10;;;6.90;;
2944;SDS011;1482;51.398;7.128;2023-12-04T12:15:01;10.20;;;5.67;;
2944;SDS011;1482;51.398;7.128;2023-12-04T12:17:26;13.83;;;7.23;;
2944;SDS011;1482;51.398;7.128;2023-12-04T12:19:52;14.70;;;7.37;;
2944;SDS011;1482;51.398;7.128;2023-12-04T12:22:18;11.80;;;6.93;;
2944;SDS011;1482;51.398;7.128;2023-12-04T12:24:44;9.70;;;6.20;;
2944;SDS011;1482;51.398;7.128;2023-12-04T12:27:10;15.07;;;7.77;;
2944;SDS011;1482;51.398;7.128;2023-12-04T12:29:35;13.13;;;8.80;;
2944;SDS011;1482;51.398;7.128;2023-12-04T12:32:01;11.23;;;7.23;;
2944;SDS011;1482;51.398;7.128;2023-12-04T12:34:28;12.80;;;7.70;;
2944;SDS011;1482;51.398;7.128;2023-12-04T12:36:53;12.73;;;7.60;;
2944;SDS011;1482;51.398;7.128;2023-12-04T12:39:19;12.73;;;7.40;;
2944;SDS011;1482;51.398;7.128;2023-12-04T12:41:51;10.57;;;7.20;;
2944;SDS011;1482;51.398;7.128;2023-12-04T12:44:16;21.80;;;7.70;;
2944;SDS011;1482;51.398;7.128;2023-12-04T12:46:46;10.17;;;6.57;;
2944;SDS011;1482;51.398;7.128;2023-12-04T12:49:14;11.20;;;5.87;;
2944;SDS011;1482;51.398;7.128;2023-12-04T12:51:42;12.80;;;7.67;;
2944;SDS011;1482;51.398;7.128;2023-12-04T12:54:07;9.90;;;6.77;;
2944;SDS011;1482;51.398;7.128;2023-12-04T12:56:33;10.87;;;6.70;;
2944;SDS011;1482;51.398;7.128;2023-12-04T12:58:59;11.60;;;7.70;;
2944;SDS011;1482;51.398;7.128;2023-12-04T13:01:26;10.83;;;7.10;;
2944;SDS011;1482;51.398;7.128;2023-12-04T13:03:56;11.90;;;7.23;;
2944;SDS011;1482;51.398;7.128;2023-12-04T13:06:22;7.53;;;5.67;;
2944;SDS011;1482;51.398;7.128;2023-12-04T13:08:47;12.50;;;7.77;;
2944;SDS011;1482;51.398;7.128;2023-12-04T13:11:13;8.13;;;6.37;;
2944;SDS011;1482;51.398;7.128;2023-12-04T13:13:39;9.33;;;6.57;;
2944;SDS011;1482;51.398;7.128;2023-12-04T13:16:05;9.03;;;6.13;;
2944;SDS011;1482;51.398;7.128;2023-12-04T13:18:31;8.53;;;7.00;;
2944;SDS011;1482;51.398;7.128;2023-12-04T13:21:00;8.77;;;6.13;;
2944;SDS011;1482;51.398;7.128;2023-12-04T13:23:26;7.63;;;5.27;;
2944;SDS011;1482;51.398;7.128;2023-12-04T13:25:51;11.10;;;7.30;;
2944;SDS011;1482;51.398;7.128;2023-12-04T13:28:19;11.30;;;7.37;;
2944;SDS011;1482;51.398;7.128;2023-12-04T13:30:45;10.67;;;6.73;;
2944;SDS011;1482;51.398;7.128;2023-12-04T13:33:10;6.90;;;6.07;;
2944;SDS011;1482;51.398;7.128;2023-12-04T13:35:36;6.00;;;4.70;;
2944;SDS011;1482;51.398;7.128;2023-12-04T13:38:02;8.37;;;5.80;;
2944;SDS011;1482;51.398;7.128;2023-12-04T13:40:27;9.90;;;7.03;;
2944;SDS011;1482;51.398;7.128;2023-12-04T13:42:57;7.07;;;5.63;;
2944;SDS011;1482;51.398;7.128;2023-12-04T13:45:41;9.00;;;5.93;;
2944;SDS011;1482;51.398;7.128;2023-12-04T13:48:07;8.27;;;6.17;;
2944;SDS011;1482;51.398;7.128;2023-12-04T13:50:32;9.67;;;5.87;;
2944;SDS011;1482;51.398;7.128;2023-12-04T13:52:58;6.10;;;4.37;;
2944;SDS011;1482;51.398;7.128;2023-12-04T13:55:24;8.60;;;5.90;;
2944;SDS011;1482;51.398;7.128;2023-12-04T13:58:11;6.87;;;5.00;;
2944;SDS011;1482;51.398;7.128;2023-12-04T14:00:57;8.43;;;5.43;;
2944;SDS011;1482;51.398;7.128;2023-12-04T14:03:23;9.43;;;5.80;;
2944;SDS011;1482;51.398;7.128;2023-12-04T14:05:49;9.10;;;6.80;;
2944;SDS011;1482;51.398;7.128;2023-12-04T14:08:15;7.77;;;4.90;;
2944;SDS011;1482;51.398;7.128;2023-12-04T14:10:40;7.47;;;5.43;;
2944;SDS011;1482;51.398;7.128;2023-12-04T14:13:06;7.00;;;5.60;;
2944;SDS011;1482;51.398;7.128;2023-12-04T14:15:31;6.63;;;5.47;;
2944;SDS011;1482;51.398;7.128;2023-12-04T14:17:57;8.20;;;5.77;;
2944;SDS011;1482;51.398;7.128;2023-12-04T14:20:22;6.70;;;5.57;;
2944;SDS011;1482;51.398;7.128;2023-12-04T14:22:50;7.13;;;5.10;;
2944;SDS011;1482;51.398;7.128;2023-12-04T14:25:15;6.40;;;5.30;;
2944;SDS011;1482;51.398;7.128;2023-12-04T14:27:41;7.10;;;5.10;;
2944;SDS011;1482;51.398;7.128;2023-12-04T14:30:08;5.83;;;4.70;;
2944;SDS011;1482;51.398;7.128;2023-12-04T14:32:35;5.53;;;4.43;;
2944;SDS011;1482;51.398;7.128;2023-12-04T14:35:01;5.57;;;4.67;;
2944;SDS011;1482;51.398;7.128;2023-12-04T14:37:27;6.83;;;4.57;;
2944;SDS011;1482;51.398;7.128;2023-12-04T14:39:53;9.00;;;5.03;;
2944;SDS011;1482;51.398;7.128;2023-12-04T14:42:19;4.83;;;3.90;;
2944;SDS011;1482;51.398;7.128;2023-12-04T14:44:44;5.97;;;4.07;;
2944;SDS011;1482;51.398;7.128;2023-12-04T14:47:10;5.63;;;4.17;;
2944;SDS011;1482;51.398;7.128;2023-12-04T14:49:36;5.80;;;4.87;;
2944;SDS011;1482;51.398;7.128;2023-12-04T14:52:02;5.97;;;4.73;;
2944;SDS011;1482;51.398;7.128;2023-12-04T14:54:30;5.10;;;4.60;;
2944;SDS011;1482;51.398;7.128;2023-12-04T14:57:16;7.20;;;5.50;;
2944;SDS011;1482;51.398;7.128;2023-12-04T15:00:11;6.90;;;5.40;;
2944;SDS011;1482;51.398;7.128;2023-12-04T15:02:55;5.63;;;4.33;;
2944;SDS011;1482;51.398;7.128;2023-12-04T15:05:29;7.63;;;5.03;;
2944;SDS011;1482;51.398;7.128;2023-12-04T15:08:30;6.20;;;4.20;;
2944;SDS011;1482;51.398;7.128;2023-12-04T15:11:02;7.27;;;5.07;;
2944;SDS011;1482;51.398;7.128;2023-12-04T15:13:56;7.23;;;4.73;;
2944;SDS011;1482;51.398;7.128;2023-12-04T15:16:40;3.70;;;3.00;;
2944;SDS011;1482;51.398;7.128;2023-12-04T15:19:12;5.73;;;4.20;;